createdAt,value
2023-01-25T00:00:33.167Z,-1.85
2023-01-25T00:03:02.521Z,-1.83
2023-01-25T00:05:32.150Z,-1.81
2023-01-25T00:08:01.350Z,-1.80
2023-01-25T00:10:30.902Z,-1.80
2023-01-25T00:13:00.292Z,-1.79
2023-01-25T00:15:29.695Z,-1.79
2023-01-25T00:17:59.331Z,-1.80
2023-01-25T00:20:28.613Z,-1.80
2023-01-25T00:22:58.274Z,-1.82
2023-01-25T00:25:30.885Z,-1.82
2023-01-25T00:28:00.290Z,-1.82
2023-01-25T00:30:30.051Z,-1.80
2023-01-25T00:33:07.619Z,-1.80
2023-01-25T00:35:37.510Z,-1.79
2023-01-25T00:38:07.366Z,-1.76
2023-01-25T00:40:37.838Z,-1.79
2023-01-25T00:43:08.732Z,-1.77
2023-01-25T00:45:38.341Z,-1.75
2023-01-25T00:48:07.553Z,-1.73
2023-01-25T00:50:40.158Z,-1.72
2023-01-25T00:53:09.333Z,-1.72
2023-01-25T00:55:38.815Z,-1.73
2023-01-25T00:58:08.513Z,-1.72
2023-01-25T01:00:38.570Z,-1.71
2023-01-25T01:03:08.290Z,-1.70
2023-01-25T01:05:38.452Z,-1.67
2023-01-25T01:08:08.437Z,-1.65
2023-01-25T01:10:37.755Z,-1.63
2023-01-25T01:13:07.659Z,-1.61
2023-01-25T01:15:37.642Z,-1.60
2023-01-25T01:18:07.163Z,-1.60
2023-01-25T01:20:36.892Z,-1.61
2023-01-25T01:23:06.247Z,-1.59
2023-01-25T01:25:36.463Z,-1.58
2023-01-25T01:28:05.848Z,-1.58
2023-01-25T01:30:37.043Z,-1.60
2023-01-25T01:33:06.894Z,-1.59
2023-01-25T01:35:36.072Z,-1.59
2023-01-25T01:38:05.674Z,-1.60
2023-01-25T01:40:35.327Z,-1.61
2023-01-25T01:43:07.399Z,-1.60
2023-01-25T01:45:48.652Z,-1.58
2023-01-25T01:48:38.796Z,-1.56
2023-01-25T01:51:15.464Z,-1.55
2023-01-25T01:53:47.568Z,-1.57
2023-01-25T01:56:20.104Z,-1.54
2023-01-25T01:58:50.746Z,-1.52
2023-01-25T02:03:06.308Z,-1.54
2023-01-25T02:05:43.736Z,-1.55
2023-01-25T02:08:14.303Z,-1.59
2023-01-25T02:10:44.028Z,-1.62
2023-01-25T02:13:13.360Z,-1.61
2023-01-25T02:15:45.517Z,-1.60
2023-01-25T02:18:14.996Z,-1.56
2023-01-25T02:20:45.925Z,-1.53
2023-01-25T02:23:41.516Z,-1.53
2023-01-25T02:26:11.885Z,-1.53
2023-01-25T02:28:50.686Z,-1.49
2023-01-25T02:31:20.176Z,-1.50
2023-01-25T02:33:49.465Z,-1.51
2023-01-25T02:36:34.884Z,-1.54
2023-01-25T02:39:09.215Z,-1.61
2023-01-25T02:41:42.647Z,-1.61
2023-01-25T02:44:14.405Z,-1.61
2023-01-25T02:46:45.616Z,-1.61
2023-01-25T02:49:15.433Z,-1.62
2023-01-25T02:51:49.945Z,-1.66
2023-01-25T02:54:21.377Z,-1.72
2023-01-25T02:56:50.944Z,-1.80
2023-01-25T02:59:21.064Z,-1.89
2023-01-25T03:01:53.728Z,-1.97
2023-01-25T03:04:23.489Z,-2.07
2023-01-25T03:06:52.903Z,-2.13
2023-01-25T03:09:23.429Z,-2.18
2023-01-25T03:11:53.456Z,-2.26
2023-01-25T03:14:24.719Z,-2.40
2023-01-25T03:16:54.821Z,-2.48
2023-01-25T03:19:25.216Z,-2.49
2023-01-25T03:21:54.527Z,-2.51
2023-01-25T03:24:23.938Z,-2.57
2023-01-25T03:27:14.097Z,-2.61
2023-01-25T03:29:47.403Z,-2.66
2023-01-25T03:32:20.515Z,-2.72
2023-01-25T03:34:51.290Z,-2.76
2023-01-25T03:37:21.677Z,-2.84
2023-01-25T03:39:50.966Z,-2.94
2023-01-25T03:42:22.584Z,-2.95
2023-01-25T03:44:55.873Z,-3.00
2023-01-25T03:47:25.405Z,-3.02
2023-01-25T03:49:57.652Z,-3.13
2023-01-25T03:52:48.161Z,-3.20
2023-01-25T03:55:22.690Z,-3.25
2023-01-25T03:57:52.572Z,-3.29
2023-01-25T04:00:24.416Z,-3.35
2023-01-25T04:02:57.405Z,-3.39
2023-01-25T04:05:26.714Z,-3.43
2023-01-25T04:07:56.359Z,-3.52
2023-01-25T04:10:33.343Z,-3.59
2023-01-25T04:13:03.267Z,-3.62
2023-01-25T04:15:34.509Z,-3.62
2023-01-25T04:18:10.772Z,-3.66
2023-01-25T04:20:42.316Z,-3.73
2023-01-25T04:23:13.625Z,-3.79
2023-01-25T04:25:44.270Z,-3.83
2023-01-25T04:28:15.361Z,-3.87
2023-01-25T04:30:45.367Z,-3.90
2023-01-25T04:33:14.810Z,-3.95
2023-01-25T04:35:44.873Z,-3.98
2023-01-25T04:38:16.061Z,-4.02
2023-01-25T04:40:46.810Z,-4.05
2023-01-25T04:43:17.025Z,-4.08
2023-01-25T04:45:47.090Z,-4.13
2023-01-25T04:48:25.718Z,-4.17
2023-01-25T04:50:58.676Z,-4.19
2023-01-25T04:53:29.707Z,-4.27
2023-01-25T04:56:04.124Z,-4.33
2023-01-25T04:58:37.701Z,-4.35
2023-01-25T05:01:08.098Z,-4.35
2023-01-25T05:03:37.671Z,-4.36
2023-01-25T05:06:09.543Z,-4.35
2023-01-25T05:08:39.331Z,-4.35
2023-01-25T05:11:08.590Z,-4.35
2023-01-25T05:13:57.336Z,-4.34
2023-01-25T05:16:31.846Z,-4.34
2023-01-25T05:19:03.117Z,-4.34
2023-01-25T05:21:58.310Z,-4.32
2023-01-25T05:24:33.094Z,-4.33
2023-01-25T05:27:04.974Z,-4.32
2023-01-25T05:30:00.593Z,-4.29
2023-01-25T05:32:51.167Z,-4.27
2023-01-25T05:35:20.796Z,-4.25
2023-01-25T05:37:51.856Z,-4.25
2023-01-25T05:40:26.107Z,-4.28
2023-01-25T05:42:58.022Z,-4.31
2023-01-25T05:45:28.481Z,-4.30
2023-01-25T05:47:59.863Z,-4.28
2023-01-25T05:50:29.856Z,-4.25
2023-01-25T05:53:05.868Z,-4.18
2023-01-25T05:55:37.521Z,-4.16
2023-01-25T05:58:10.653Z,-4.14
2023-01-25T06:00:41.497Z,-4.11
2023-01-25T06:03:11.672Z,-4.09
2023-01-25T06:05:42.804Z,-4.01
2023-01-25T06:08:13.265Z,-3.98
2023-01-25T06:10:49.594Z,-3.99
2023-01-25T06:13:19.890Z,-3.95
2023-01-25T06:15:54.445Z,-3.85
2023-01-25T06:18:59.400Z,-3.82
2023-01-25T06:21:53.168Z,-3.74
2023-01-25T06:24:23.281Z,-3.69
2023-01-25T06:26:53.662Z,-3.65
2023-01-25T06:29:24.171Z,-3.59
2023-01-25T06:31:54.059Z,-3.50
2023-01-25T06:34:25.481Z,-3.45
2023-01-25T06:36:56.625Z,-3.44
2023-01-25T06:39:27.025Z,-3.40
2023-01-25T06:41:59.445Z,-3.33
2023-01-25T06:44:30.755Z,-3.28
2023-01-25T06:47:01.008Z,-3.17
2023-01-25T06:49:34.481Z,-3.09
2023-01-25T06:52:05.382Z,-3.00
2023-01-25T06:54:36.439Z,-2.93
2023-01-25T06:57:07.296Z,-2.86
2023-01-25T06:59:38.203Z,-2.78
2023-01-25T07:02:08.197Z,-2.74
2023-01-25T07:04:43.466Z,-2.66
2023-01-25T07:07:14.491Z,-2.60
2023-01-25T07:09:45.390Z,-2.52
2023-01-25T07:12:16.349Z,-2.42
2023-01-25T07:14:49.579Z,-2.35
2023-01-25T07:17:21.082Z,-2.32
2023-01-25T07:19:51.026Z,-2.22
2023-01-25T07:22:20.762Z,-2.15
2023-01-25T07:24:54.030Z,-2.08
2023-01-25T07:27:26.827Z,-1.99
2023-01-25T07:29:57.969Z,-1.90
2023-01-25T07:32:28.329Z,-1.81
2023-01-25T07:34:58.715Z,-1.72
2023-01-25T07:37:29.049Z,-1.66
2023-01-25T07:40:00.005Z,-1.60
2023-01-25T07:42:29.811Z,-1.53
2023-01-25T07:45:13.850Z,-1.48
2023-01-25T07:47:43.914Z,-1.46
2023-01-25T07:50:13.414Z,-1.42
2023-01-25T07:52:43.372Z,-1.36
2023-01-25T07:55:14.214Z,-1.35
2023-01-25T07:57:44.412Z,-1.28
2023-01-25T08:00:15.144Z,-1.23
2023-01-25T08:02:44.792Z,-1.17
2023-01-25T08:05:14.588Z,-1.05
2023-01-25T08:08:47.095Z,-0.99
2023-01-25T08:11:25.256Z,-0.92
2023-01-25T08:13:55.033Z,-0.84
2023-01-25T08:16:26.877Z,-0.81
2023-01-25T08:18:58.838Z,-0.79
2023-01-25T08:21:32.076Z,-0.69
2023-01-25T08:24:04.693Z,-0.62
2023-01-25T08:26:34.817Z,-0.55
2023-01-25T08:29:04.722Z,-0.50
2023-01-25T08:31:35.721Z,-0.41
2023-01-25T08:34:05.596Z,-0.37
2023-01-25T08:36:34.959Z,-0.33
2023-01-25T08:39:07.018Z,-0.24
2023-01-25T08:41:37.873Z,-0.18
2023-01-25T08:44:08.079Z,-0.11
2023-01-25T08:46:38.141Z,-0.04
2023-01-25T08:49:09.807Z,0.03
2023-01-25T08:51:39.687Z,0.09
2023-01-25T08:54:13.543Z,0.13
2023-01-25T08:56:43.771Z,0.24
2023-01-25T08:59:13.615Z,0.35
2023-01-25T09:01:42.945Z,0.41
2023-01-25T09:04:12.417Z,0.46
2023-01-25T09:06:45.385Z,0.49
2023-01-25T09:09:14.884Z,0.50
2023-01-25T09:11:44.644Z,0.56
2023-01-25T09:14:15.547Z,0.63
2023-01-25T09:16:45.525Z,0.67
2023-01-25T09:19:15.543Z,0.70
2023-01-25T09:21:45.536Z,0.77
2023-01-25T09:24:15.902Z,0.82
2023-01-25T09:26:55.742Z,0.87
2023-01-25T09:29:29.231Z,0.94
2023-01-25T09:31:58.611Z,1.00
2023-01-25T09:34:37.984Z,1.13
2023-01-25T09:37:07.792Z,1.22
2023-01-25T09:39:37.463Z,1.32
2023-01-25T09:42:20.546Z,1.45
2023-01-25T09:44:54.640Z,1.46
2023-01-25T09:47:51.533Z,1.43
2023-01-25T09:50:43.624Z,1.39
2023-01-25T09:53:28.619Z,1.47
2023-01-25T09:56:19.805Z,1.49
2023-01-25T09:58:51.167Z,1.63
2023-01-25T10:01:38.611Z,1.72
2023-01-25T10:04:42.647Z,1.76
2023-01-25T10:07:31.853Z,1.80
2023-01-25T10:10:24.058Z,1.85
2023-01-25T10:12:57.138Z,1.83
2023-01-25T10:15:48.936Z,1.82
2023-01-25T10:18:38.249Z,1.85
2023-01-25T10:21:32.888Z,1.91
2023-01-25T10:24:27.156Z,2.07
2023-01-25T10:26:58.294Z,2.16
2023-01-25T10:29:34.255Z,2.23
2023-01-25T10:32:27.664Z,2.23
2023-01-25T10:34:57.806Z,2.30
2023-01-25T10:37:30.088Z,2.27
2023-01-25T10:40:18.402Z,2.30
2023-01-25T10:43:08.745Z,2.29
2023-01-25T10:45:39.303Z,2.28
2023-01-25T10:48:10.151Z,2.33
2023-01-25T10:50:40.057Z,2.39
2023-01-25T10:53:25.398Z,2.46
2023-01-25T10:56:10.022Z,2.52
2023-01-25T10:58:49.457Z,2.56
2023-01-25T11:01:26.446Z,2.60
2023-01-25T11:03:55.995Z,2.60
2023-01-25T11:06:55.850Z,2.56
2023-01-25T11:09:39.923Z,2.62
2023-01-25T11:12:12.084Z,2.67
2023-01-25T11:14:42.611Z,2.68
2023-01-25T11:17:27.752Z,2.70
2023-01-25T11:20:16.856Z,2.78
2023-01-25T11:22:55.147Z,2.84
2023-01-25T11:25:36.445Z,2.88
2023-01-25T11:28:18.687Z,2.86
2023-01-25T11:30:51.581Z,2.88
2023-01-25T11:33:22.678Z,2.92
2023-01-25T11:36:14.276Z,2.96
2023-01-25T11:38:55.915Z,2.94
2023-01-25T11:41:41.743Z,2.88
2023-01-25T11:44:28.008Z,2.82
2023-01-25T11:47:05.753Z,2.78
2023-01-25T11:49:49.349Z,2.83
2023-01-25T12:01:46.305Z,3.09
2023-01-25T12:04:38.214Z,3.09
2023-01-25T12:07:29.911Z,3.06
2023-01-25T12:10:05.751Z,3.01
2023-01-25T12:12:52.367Z,3.02
2023-01-25T12:15:35.528Z,3.06
2023-01-25T12:18:40.930Z,3.08
2023-01-25T12:21:30.735Z,3.05
2023-01-25T12:24:35.364Z,2.96
2023-01-25T12:27:15.429Z,2.87
2023-01-25T12:29:56.575Z,2.86
2023-01-25T12:32:34.957Z,2.88
2023-01-25T12:35:20.412Z,2.89
2023-01-25T12:37:51.430Z,2.88
2023-01-25T12:40:31.230Z,2.88
2023-01-25T12:43:02.544Z,2.87
2023-01-25T12:45:36.184Z,2.86
2023-01-25T12:48:26.344Z,2.89
2023-01-25T12:50:58.282Z,2.88
2023-01-25T12:53:39.307Z,2.85
2023-01-25T12:56:12.574Z,2.85
2023-01-25T12:58:48.600Z,2.84
2023-01-25T13:01:48.900Z,2.82
2023-01-25T13:04:25.620Z,2.77
2023-01-25T13:07:05.343Z,2.75
2023-01-25T13:09:45.286Z,2.76
2023-01-25T13:12:16.355Z,2.74
2023-01-25T13:14:47.403Z,2.70
2023-01-25T13:17:36.500Z,2.68
2023-01-25T13:20:42.518Z,2.64
2023-01-25T13:23:33.081Z,2.64
2023-01-25T13:26:27.185Z,2.61
2023-01-25T13:29:00.103Z,2.56
2023-01-25T13:31:53.260Z,2.53
2023-01-25T13:34:36.535Z,2.50
2023-01-25T13:37:31.103Z,2.44
2023-01-25T13:40:36.097Z,2.37
2023-01-25T13:43:21.946Z,2.32
2023-01-25T13:45:53.499Z,2.27
2023-01-25T13:48:26.959Z,2.24
2023-01-25T13:51:04.032Z,2.18
2023-01-25T13:53:35.869Z,2.11
2023-01-25T13:56:06.271Z,2.05
2023-01-25T13:58:38.046Z,1.98
2023-01-25T14:01:15.946Z,1.92
2023-01-25T14:03:51.419Z,1.86
2023-01-25T14:06:26.951Z,1.80
2023-01-25T14:09:00.837Z,1.71
2023-01-25T14:11:32.713Z,1.61
2023-01-25T14:14:27.666Z,1.50
2023-01-25T14:17:09.957Z,1.36
2023-01-25T14:19:41.434Z,1.27
2023-01-25T14:22:27.641Z,1.20
2023-01-25T14:25:21.671Z,1.09
2023-01-25T14:27:56.984Z,0.94
2023-01-25T14:30:31.702Z,0.85
2023-01-25T14:33:24.576Z,0.76
2023-01-25T14:36:03.438Z,0.66
2023-01-25T14:38:42.448Z,0.54
2023-01-25T14:41:20.522Z,0.45
2023-01-25T14:43:54.465Z,0.34
2023-01-25T14:46:30.733Z,0.22
2023-01-25T14:49:13.950Z,0.11
2023-01-25T14:52:04.291Z,-0.00
2023-01-25T14:54:38.765Z,-0.11
2023-01-25T14:57:32.177Z,-0.19
2023-01-25T15:00:11.821Z,-0.28
2023-01-25T15:02:59.598Z,-0.35
2023-01-25T15:05:38.404Z,-0.41
2023-01-25T15:08:08.665Z,-0.47
2023-01-25T15:10:39.615Z,-0.55
2023-01-25T15:13:15.364Z,-0.59
2023-01-25T15:16:01.841Z,-0.64
2023-01-25T15:18:52.271Z,-0.74
2023-01-25T15:21:26.895Z,-0.81
2023-01-25T15:23:58.274Z,-0.85
2023-01-25T15:26:30.537Z,-0.89
2023-01-25T15:29:13.181Z,-0.91
2023-01-25T15:31:43.473Z,-0.95
2023-01-25T15:34:24.039Z,-1.00
2023-01-25T15:36:54.910Z,-1.05
2023-01-25T15:39:26.023Z,-1.09
2023-01-25T15:41:59.040Z,-1.13
2023-01-25T15:44:29.799Z,-1.17
2023-01-25T15:47:01.332Z,-1.23
2023-01-25T15:49:35.809Z,-1.26
2023-01-25T15:52:07.068Z,-1.30
2023-01-25T15:54:37.447Z,-1.32
2023-01-25T15:57:16.064Z,-1.35
2023-01-25T15:59:46.542Z,-1.38
2023-01-25T16:02:18.252Z,-1.39
2023-01-25T16:04:50.361Z,-1.43
2023-01-25T16:07:31.611Z,-1.45
2023-01-25T16:10:04.064Z,-1.46
2023-01-25T16:12:35.308Z,-1.52
2023-01-25T16:15:07.920Z,-1.55
2023-01-25T16:17:55.474Z,-1.56
2023-01-25T16:20:26.903Z,-1.60
2023-01-25T16:22:58.534Z,-1.65
2023-01-25T16:25:32.472Z,-1.71
2023-01-25T16:28:04.716Z,-1.75
2023-01-25T16:30:38.420Z,-1.83
2023-01-25T16:33:09.526Z,-1.86
2023-01-25T16:35:40.024Z,-1.91
2023-01-25T16:38:12.801Z,-1.96
2023-01-25T16:40:49.549Z,-1.99
2023-01-25T16:43:22.754Z,-2.00
2023-01-25T16:46:03.226Z,-2.01
2023-01-25T16:48:34.623Z,-2.03
2023-01-25T16:51:08.510Z,-2.04
2023-01-25T16:53:38.802Z,-2.02
2023-01-25T16:56:19.349Z,-2.03
2023-01-25T16:58:53.165Z,-2.09
2023-01-25T17:01:25.878Z,-2.16
2023-01-25T17:03:58.862Z,-2.24
2023-01-25T17:06:33.254Z,-2.29
2023-01-25T17:09:21.877Z,-2.34
2023-01-25T17:11:54.467Z,-2.41
2023-01-25T17:14:26.403Z,-2.47
2023-01-25T17:16:56.564Z,-2.51
2023-01-25T17:19:30.767Z,-2.54
2023-01-25T17:22:03.941Z,-2.55
2023-01-25T17:24:38.596Z,-2.58
2023-01-25T17:27:10.177Z,-2.60
2023-01-25T17:29:43.352Z,-2.66
2023-01-25T17:32:13.541Z,-2.77
2023-01-25T17:34:44.738Z,-2.89
2023-01-25T17:37:15.436Z,-3.02
2023-01-25T17:39:48.365Z,-3.12
2023-01-25T17:42:21.615Z,-3.21
2023-01-25T17:44:56.301Z,-3.28
2023-01-25T17:47:28.213Z,-3.31
2023-01-25T17:50:01.883Z,-3.37
2023-01-25T17:52:41.412Z,-3.41
2023-01-25T17:55:14.440Z,-3.45
2023-01-25T17:57:49.182Z,-3.51
2023-01-25T18:00:24.866Z,-3.57
2023-01-25T18:02:58.299Z,-3.63
2023-01-25T18:05:31.551Z,-3.68
2023-01-25T18:08:04.130Z,-3.75
2023-01-25T18:10:35.029Z,-3.81
2023-01-25T18:13:11.190Z,-3.87
2023-01-25T18:15:42.068Z,-3.93
2023-01-25T18:18:16.239Z,-3.95
2023-01-25T18:20:50.855Z,-3.94
2023-01-25T18:23:24.585Z,-3.91
2023-01-25T18:25:56.166Z,-3.85
2023-01-25T18:28:28.064Z,-3.80
2023-01-25T18:31:03.747Z,-3.75
2023-01-25T18:33:40.154Z,-3.68
2023-01-25T18:36:14.644Z,-3.59
2023-01-25T18:38:52.613Z,-3.45
2023-01-25T18:41:23.750Z,-3.32
2023-01-25T18:43:55.082Z,-3.23
2023-01-25T18:46:27.017Z,-3.15
2023-01-25T18:49:00.861Z,-3.05
2023-01-25T18:51:32.011Z,-2.94
2023-01-25T18:54:03.214Z,-2.83
2023-01-25T18:56:38.190Z,-2.76
2023-01-25T18:59:13.442Z,-2.67
2023-01-25T19:01:43.722Z,-2.57
2023-01-25T19:04:15.992Z,-2.50
2023-01-25T19:06:48.806Z,-2.43
2023-01-25T19:09:19.810Z,-2.37
2023-01-25T19:11:50.590Z,-2.30
2023-01-25T19:14:21.883Z,-2.24
2023-01-25T19:16:53.332Z,-2.20
2023-01-25T19:19:24.582Z,-2.17
2023-01-25T19:21:54.858Z,-2.11
2023-01-25T19:24:28.891Z,-2.08
2023-01-25T19:26:59.122Z,-2.07
2023-01-25T19:29:31.942Z,-2.05
2023-01-25T19:32:04.025Z,-2.03
2023-01-25T19:34:36.756Z,-2.05
2023-01-25T19:37:07.539Z,-2.07
2023-01-25T19:39:38.038Z,-2.09
2023-01-25T19:42:08.354Z,-2.09
2023-01-25T19:44:40.601Z,-2.12
2023-01-25T19:47:10.977Z,-2.16
2023-01-25T19:49:41.026Z,-2.20
2023-01-25T19:52:11.398Z,-2.23
2023-01-25T19:54:41.875Z,-2.30
2023-01-25T19:57:13.879Z,-2.32
2023-01-25T19:59:44.042Z,-2.33
2023-01-25T20:02:14.199Z,-2.33
2023-01-25T20:04:47.467Z,-2.32
2023-01-25T20:07:16.670Z,-2.31
2023-01-25T20:09:46.209Z,-2.30
2023-01-25T20:12:16.307Z,-2.30
2023-01-25T20:14:46.232Z,-2.23
2023-01-25T20:17:15.899Z,-2.23
2023-01-25T20:19:45.520Z,-2.21
2023-01-25T20:22:15.923Z,-2.25
2023-01-25T20:24:46.695Z,-2.25
2023-01-25T20:27:17.093Z,-2.29
2023-01-25T20:29:47.069Z,-2.34
2023-01-25T20:32:32.466Z,-2.34
2023-01-25T20:35:03.990Z,-2.31
2023-01-25T20:37:33.654Z,-2.31
2023-01-25T20:40:03.529Z,-2.26
2023-01-25T20:42:33.484Z,-2.24
2023-01-25T20:45:03.158Z,-2.32
2023-01-25T20:47:34.671Z,-2.40
2023-01-25T20:50:05.209Z,-2.50
2023-01-25T20:52:35.129Z,-2.61
2023-01-25T20:55:06.171Z,-2.73
2023-01-25T20:57:37.017Z,-2.74
2023-01-25T21:00:09.981Z,-2.71
2023-01-25T21:02:41.793Z,-2.73
2023-01-25T21:05:11.974Z,-2.80
2023-01-25T21:07:43.281Z,-2.86
2023-01-25T21:10:13.930Z,-2.91
2023-01-25T21:12:44.600Z,-2.95
2023-01-25T21:15:18.387Z,-2.94
2023-01-25T21:17:53.228Z,-2.94
2023-01-25T21:20:23.396Z,-2.98
2023-01-25T21:22:52.852Z,-3.03
2023-01-25T21:25:22.958Z,-3.06
2023-01-25T21:27:53.957Z,-3.08
2023-01-25T21:30:24.013Z,-3.10
2023-01-25T21:32:53.480Z,-3.10
2023-01-25T21:35:23.427Z,-3.11
2023-01-25T21:37:54.024Z,-3.11
2023-01-25T21:40:24.132Z,-3.12
2023-01-25T21:42:53.876Z,-3.14
2023-01-25T21:45:42.083Z,-3.19
2023-01-25T21:48:11.532Z,-3.22
2023-01-25T21:50:59.340Z,-3.24
2023-01-25T21:53:29.025Z,-3.25
2023-01-25T21:55:58.554Z,-3.34
2023-01-25T21:58:28.837Z,-3.34
2023-01-25T22:01:02.498Z,-3.36
2023-01-25T22:03:32.121Z,-3.35
2023-01-25T22:06:02.058Z,-3.32
2023-01-25T22:08:31.571Z,-3.32
2023-01-25T22:11:04.939Z,-3.30
2023-01-25T22:13:35.525Z,-3.27
2023-01-25T22:16:05.585Z,-3.22
2023-01-25T22:18:37.063Z,-3.19
2023-01-25T22:21:08.997Z,-3.19
2023-01-25T22:23:38.639Z,-3.22
2023-01-25T22:26:10.046Z,-3.24
2023-01-25T22:28:48.687Z,-3.27
2023-01-25T22:31:19.847Z,-3.30
2023-01-25T22:33:49.696Z,-3.33
2023-01-25T22:36:20.781Z,-3.34
2023-01-25T22:38:51.184Z,-3.32
2023-01-25T22:41:25.643Z,-3.29
2023-01-25T22:43:55.447Z,-3.31
2023-01-25T22:46:29.431Z,-3.34
2023-01-25T22:48:59.215Z,-3.35
2023-01-25T22:51:30.381Z,-3.38
2023-01-25T22:54:00.261Z,-3.38
2023-01-25T22:56:32.542Z,-3.36
2023-01-25T22:59:02.330Z,-3.37
2023-01-25T23:01:33.853Z,-3.40
2023-01-25T23:04:03.154Z,-3.40
2023-01-25T23:06:34.799Z,-3.43
2023-01-25T23:09:05.546Z,-3.44
2023-01-25T23:11:38.372Z,-3.42
2023-01-25T23:14:28.134Z,-3.45
2023-01-25T23:17:18.908Z,-3.56
2023-01-25T23:19:48.204Z,-3.57
2023-01-25T23:22:18.062Z,-3.59
2023-01-25T23:24:47.483Z,-3.60
2023-01-25T23:27:16.843Z,-3.61
2023-01-25T23:29:46.413Z,-3.63
2023-01-25T23:32:16.294Z,-3.64
2023-01-25T23:34:45.683Z,-3.65
2023-01-25T23:37:16.883Z,-3.73
2023-01-25T23:39:46.378Z,-3.79
2023-01-25T23:42:15.997Z,-3.81
2023-01-25T23:44:45.443Z,-3.81
2023-01-25T23:47:15.511Z,-3.77
2023-01-25T23:49:45.068Z,-3.71
2023-01-25T23:52:14.223Z,-3.70
2023-01-25T23:54:43.724Z,-3.69
2023-01-25T23:57:12.749Z,-3.69
2023-01-25T23:59:41.853Z,-3.67
